Weather History for Mackinac Island, MI

Change the Weather History Date:

Thursday, May 23, 2013

  Actual Average Record
Temperature  
Mean Temperature 46 °F -  
Max Temperature 52 °F 56 °F 78 °F (2007)
Min Temperature 41 °F 41 °F 35 °F (1979)
Degree Days  
Heating Degree Days 18    
Moisture  
Dew Point 38 °F    
Average Humidity 74    
Maximum Humidity 96    
Minimum Humidity 47    
Precipitation  
Precipitation 0.30 in - - ()
Sea Level Pressure  
Sea Level Pressure 30.02 in    
Wind  
Wind Speed 14 mph (North)    
Max Wind Speed 20 mph    
Max Gust Speed 29 mph    
Visibility 9 miles    
Events Rain    
Averages and records for this station are not official NWS values.
T = Trace of Precipitation, MM = Missing Value Source: NWS Daily Summary

Daily Weather History Graph

Daily Weather History Graph

Search for Another Location

Airport:

Trip Planner

Search our weather history database for the weather conditions in past years. The results will help you decide how hot, cold, wet, or windy it might be!

Date:

Astronomy

May. 23, 2013 Rise Set
Actual Time 5:58 AM EDT 9:12 PM EDT
Civil Twilight 5:22 AM EDT 9:49 PM EDT
Nautical Twilight 4:35 AM EDT 10:36 PM EDT
Astronomical Twilight 3:37 AM EDT 11:35 PM EDT
Moon 7:40 PM EDT (5/23) 4:48 AM EDT (5/23)
Length of Visible Light 16h 27m
Length of Day
15h 14m
Waxing Gibbous, 97% of the Moon is Illuminated
May 23
Waxing Gibbous
May 25
Full
May 31
Last Quarter
Jun 8
New
Jun 16
First Quarter

Hourly Weather History & Observations

Time (EDT) Temp. Windchill Dew Point Humidity Pressure Visibility Wind Dir Wind Speed Gust Speed Precip Events Conditions
12:14 AM 52.3 °F - 51.3 °F 96% 29.78 in 4.0 mi NNE 11.5 mph 18.4 mph 0.02 in   Overcast
12:34 AM 52.3 °F - 51.3 °F 96% 29.78 in 7.0 mi North 11.5 mph 16.1 mph 0.03 in Rain Light Rain
12:55 AM 52.3 °F - 51.3 °F 96% 29.79 in 7.0 mi North 10.4 mph 16.1 mph 0.03 in Rain Light Rain
1:14 AM 52.3 °F - 51.3 °F 96% 29.79 in 7.0 mi North 12.7 mph 19.6 mph N/A Rain Light Rain
1:34 AM 52.0 °F - 50.9 °F 96% 29.80 in 7.0 mi North 13.8 mph 19.6 mph 0.01 in Rain Light Rain
1:55 AM 50.9 °F - 49.5 °F 95% 29.80 in 10.0 mi NNE 19.6 mph 27.6 mph 0.01 in Rain Light Rain
2:14 AM 50.0 °F - 48.6 °F 95% 29.80 in 10.0 mi NNE 19.6 mph 27.6 mph N/A Rain Light Rain
2:34 AM 49.5 °F - 48.2 °F 95% 29.80 in 7.0 mi NNE 18.4 mph 26.5 mph 0.02 in   Overcast
2:54 AM 48.7 °F - 47.3 °F 95% 29.80 in 4.0 mi NNE 12.7 mph 25.3 mph 0.04 in   Overcast
3:14 AM 48.4 °F - 46.9 °F 95% 29.81 in 4.0 mi North 16.1 mph 28.8 mph 0.03 in   Overcast
3:35 AM 48.6 °F - 47.3 °F 95% 29.82 in 3.0 mi North 16.1 mph 21.9 mph 0.11 in   Overcast
3:54 AM 47.8 °F - 46.6 °F 95% 29.82 in 4.0 mi North 16.1 mph 23.0 mph 0.14 in   Overcast
4:14 AM 46.4 °F 39.8 °F 45.0 °F 95% 29.82 in 4.0 mi North 16.1 mph 24.2 mph 0.03 in   Overcast
4:35 AM 45.5 °F 39.6 °F 43.9 °F 94% 29.83 in 7.0 mi North 12.7 mph 23.0 mph 0.05 in   Overcast
4:54 AM 44.8 °F 38.0 °F 43.5 °F 95% 29.84 in 10.0 mi North 15.0 mph 23.0 mph 0.05 in Rain Light Rain
5:15 AM 44.2 °F 38.0 °F 42.8 °F 95% 29.85 in 10.0 mi North 12.7 mph 23.0 mph N/A Rain Light Rain
5:34 AM 43.7 °F 37.3 °F 42.1 °F 94% 29.87 in 10.0 mi North 12.7 mph 20.7 mph N/A Rain Light Rain
5:54 AM 43.3 °F 36.5 °F 41.9 °F 95% 29.88 in 10.0 mi North 13.8 mph 19.6 mph N/A Rain Light Rain
6:15 AM 43.2 °F 36.6 °F 41.5 °F 94% 29.89 in 10.0 mi North 12.7 mph 19.6 mph N/A Rain Light Rain
6:34 AM 43.3 °F 36.8 °F 41.9 °F 95% 29.89 in 10.0 mi North 12.7 mph 21.9 mph N/A Rain Light Rain
6:54 AM 42.8 °F 35.4 °F 41.0 °F 93% 29.91 in 10.0 mi NNE 15.0 mph 23.0 mph N/A Rain Light Rain
7:15 AM 42.4 °F 35.7 °F 40.5 °F 93% 29.92 in 5.0 mi North 12.7 mph 19.6 mph N/A   Overcast
7:34 AM 41.9 °F 34.3 °F 40.1 °F 93% 29.93 in 3.0 mi North 15.0 mph 21.9 mph 0.02 in   Overcast
7:54 AM 41.9 °F 34.3 °F 40.3 °F 94% 29.94 in 4.0 mi North 15.0 mph 20.7 mph 0.03 in Rain Light Rain
8:15 AM 41.4 °F 32.7 °F 39.2 °F 92% 29.95 in 5.0 mi NNE 18.4 mph 25.3 mph N/A Rain Light Rain
8:34 AM 41.5 °F 34.2 °F 39.2 °F 91% 29.96 in 10.0 mi NNE 13.8 mph 21.9 mph N/A Rain Light Rain
8:54 AM 41.5 °F 34.2 °F 39.6 °F 93% 29.97 in 10.0 mi NNE 13.8 mph 21.9 mph N/A Rain Light Rain
9:15 AM 41.0 °F 33.1 °F 38.5 °F 91% 29.98 in 10.0 mi NNE 15.0 mph 25.3 mph N/A Rain Light Rain
9:34 AM 41.4 °F 34.3 °F 39.0 °F 91% 30.00 in 10.0 mi North 12.7 mph 20.7 mph N/A   Overcast
9:54 AM 42.1 °F 35.2 °F 39.2 °F 90% 30.00 in 10.0 mi North 12.7 mph 19.6 mph N/A   Overcast
10:15 AM 42.6 °F 35.6 °F 38.8 °F 86% 30.02 in 10.0 mi North 13.8 mph 19.6 mph N/A   Overcast
10:34 AM 42.8 °F 35.1 °F 38.3 °F 84% 30.02 in 10.0 mi North 16.1 mph 20.7 mph N/A   Overcast
10:54 AM 42.3 °F 35.5 °F 37.4 °F 83% 30.03 in 10.0 mi North 12.7 mph 21.9 mph N/A   Mostly Cloudy
11:15 AM 43.7 °F 35.7 °F 37.0 °F 77% 30.04 in 10.0 mi North 18.4 mph 23.0 mph N/A   Scattered Clouds
11:34 AM 44.8 °F 38.0 °F 36.3 °F 72% 30.05 in 10.0 mi North 15.0 mph 24.2 mph N/A   Clear
11:54 AM 44.8 °F 39.0 °F 34.7 °F 68% 30.05 in 10.0 mi North 11.5 mph 21.9 mph N/A   Scattered Clouds
12:15 PM 46.9 °F - 35.4 °F 64% 30.06 in 10.0 mi North 11.5 mph 19.6 mph N/A   Scattered Clouds
12:34 PM 47.3 °F - 35.4 °F 63% 30.07 in 10.0 mi North 11.5 mph 20.7 mph N/A   Clear
12:54 PM 47.3 °F - 34.7 °F 62% 30.07 in 10.0 mi North 15.0 mph 23.0 mph N/A   Clear
1:15 PM 47.3 °F - 33.6 °F 59% 30.08 in 10.0 mi North 15.0 mph 23.0 mph N/A   Clear
1:34 PM 46.9 °F - 34.0 °F 61% 30.08 in 10.0 mi North 13.8 mph 21.9 mph N/A   Clear
1:54 PM 47.7 °F - 34.0 °F 59% 30.08 in 10.0 mi North 12.7 mph 24.2 mph N/A   Clear
2:15 PM 48.2 °F - 33.3 °F 56% 30.09 in 10.0 mi North 13.8 mph 23.0 mph N/A   Clear
2:34 PM 49.1 °F - 33.3 °F 54% 30.08 in 10.0 mi North 13.8 mph 20.7 mph N/A   Clear
2:54 PM 49.3 °F - 33.1 °F 54% 30.09 in 10.0 mi North 15.0 mph 21.9 mph N/A   Clear
3:15 PM 50.0 °F - 33.6 °F 53% 30.09 in 10.0 mi North 11.5 mph 24.2 mph N/A   Clear
3:34 PM 50.9 °F - 32.7 °F 50% 30.09 in 10.0 mi North 13.8 mph 21.9 mph N/A   Clear
3:54 PM 51.3 °F - 32.5 °F 49% 30.10 in 10.0 mi North 15.0 mph 23.0 mph N/A   Clear
4:15 PM 51.8 °F - 32.4 °F 48% 30.10 in 10.0 mi North 15.0 mph 21.9 mph N/A   Clear
4:34 PM 52.3 °F - 33.4 °F 49% 30.10 in 10.0 mi North 15.0 mph 21.9 mph N/A   Clear
4:55 PM 51.8 °F - 32.4 °F 48% 30.11 in 10.0 mi North 15.0 mph 25.3 mph N/A   Clear
5:14 PM 52.2 °F - 33.8 °F 50% 30.11 in 10.0 mi North 10.4 mph 23.0 mph N/A   Clear
5:34 PM 51.6 °F - 32.2 °F 47% 30.11 in 10.0 mi North 11.5 mph 25.3 mph N/A   Clear
5:55 PM 51.3 °F - 32.2 °F 48% 30.12 in 10.0 mi North 13.8 mph 21.9 mph N/A   Clear
6:14 PM 51.6 °F - 32.2 °F 47% 30.12 in 10.0 mi North 12.7 mph 24.2 mph N/A   Clear
6:34 PM 51.3 °F - 32.5 °F 49% 30.12 in 10.0 mi North 13.8 mph 24.2 mph N/A   Clear
6:55 PM 50.5 °F - 32.0 °F 49% 30.13 in 10.0 mi North 12.7 mph 25.3 mph N/A   Clear
7:14 PM 50.2 °F - 31.8 °F 49% 30.14 in 10.0 mi North 11.5 mph 23.0 mph N/A   Clear
7:34 PM 49.6 °F - 32.0 °F 51% 30.15 in 10.0 mi NNW 15.0 mph 21.9 mph N/A   Clear
7:55 PM 48.7 °F - 31.6 °F 52% 30.16 in 10.0 mi North 12.7 mph 27.6 mph N/A   Clear
8:14 PM 47.8 °F - 30.9 °F 52% 30.17 in 10.0 mi North 13.8 mph 28.8 mph N/A   Clear
8:34 PM 46.8 °F - 30.7 °F 54% 30.17 in 10.0 mi North 16.1 mph 25.3 mph N/A   Clear
8:55 PM 46.0 °F 39.9 °F 30.6 °F 55% 30.18 in 10.0 mi NNW 13.8 mph 24.2 mph N/A   Clear
9:14 PM 45.5 °F 39.2 °F 30.6 °F 56% 30.19 in 10.0 mi NNW 13.8 mph 21.9 mph N/A   Clear
9:34 PM 45.0 °F 38.9 °F 30.6 °F 57% 30.19 in 10.0 mi NNW 12.7 mph 21.9 mph N/A   Clear
9:55 PM 44.6 °F 38.8 °F 30.9 °F 59% 30.20 in 10.0 mi NNW 11.5 mph 18.4 mph N/A   Clear
10:14 PM 43.9 °F 37.9 °F 30.9 °F 60% 30.21 in 10.0 mi North 11.5 mph 18.4 mph N/A   Clear
10:34 PM 43.3 °F 38.6 °F 31.3 °F 62% 30.22 in 10.0 mi NNW 8.1 mph 17.3 mph N/A   Clear
10:55 PM 42.8 °F 38.6 °F 31.8 °F 65% 30.23 in 10.0 mi NNW 6.9 mph 16.1 mph N/A   Clear
11:14 PM 42.1 °F 37.1 °F 32.0 °F 67% 30.23 in 10.0 mi NNW 8.1 mph - N/A   Clear
11:34 PM 41.4 °F 36.8 °F 32.4 °F 70% 30.24 in 10.0 mi NNW 6.9 mph - N/A   Clear
11:55 PM 41.4 °F 36.2 °F 32.9 °F 72% 30.25 in 10.0 mi North 8.1 mph - N/A   Clear